Time;durP1;ratioP1;P1;durP2;ratioP2;P2;SDS_P1;SDS_P2;PMS_P1;PMS_P2;Temp;Humidity;BMP_temperature;BMP_pressure;BME280_temperature;BME280_humidity;BME280_pressure;Samples;Min_cycle;Max_cycle;Signal;HPM_P1;HPM_P2
2021/07/21 00:01:10;;;;;;;28.25;8.93;;;;;;;17.88;100.00;99843.86;1718906;80;21573;-88
2021/07/21 00:03:55;;;;;;;20.32;7.53;;;;;;;17.92;100.00;99850.30;1737720;80;21068;-87
2021/07/21 00:06:42;;;;;;;30.23;9.35;;;;;;;17.97;100.00;99848.69;1734764;82;21005;-87
2021/07/21 00:09:27;;;;;;;27.42;9.93;;;;;;;18.00;100.00;99845.26;1720426;82;21080;-88
2021/07/21 00:15:18;;;;;;;25.45;8.30;;;;;;;18.08;100.00;99838.58;1720939;81;21131;-88
2021/07/21 00:18:19;;;;;;;22.55;8.68;;;;;;;18.11;100.00;99842.03;1686203;83;21097;-87
2021/07/21 00:21:03;;;;;;;22.25;8.68;;;;;;;18.13;100.00;99840.54;1713861;82;21097;-87
2021/07/21 00:23:48;;;;;;;19.77;7.50;;;;;;;18.16;100.00;99843.19;1719871;82;21108;-88
2021/07/21 00:26:33;;;;;;;24.70;9.10;;;;;;;18.20;100.00;99848.23;1721756;81;21076;-88
2021/07/21 00:29:18;;;;;;;25.72;7.25;;;;;;;18.21;100.00;99847.91;1746131;81;21034;-87
2021/07/21 00:32:04;;;;;;;18.27;7.22;;;;;;;18.23;100.00;99845.61;1734709;81;21804;-87
2021/07/21 00:34:50;;;;;;;21.57;7.72;;;;;;;18.26;100.00;99848.25;1738675;81;21053;-87
2021/07/21 00:37:35;;;;;;;27.27;8.35;;;;;;;18.30;100.00;99846.97;1758462;80;21037;-87
2021/07/21 00:40:20;;;;;;;19.87;7.50;;;;;;;18.32;100.00;99846.06;1751176;80;21064;-86
2021/07/21 00:43:06;;;;;;;21.87;7.72;;;;;;;18.33;100.00;99844.34;1739295;81;21140;-87
2021/07/21 00:45:51;;;;;;;19.70;7.40;;;;;;;18.35;100.00;99840.66;1742712;81;21048;-88
2021/07/21 00:48:36;;;;;;;21.25;8.13;;;;;;;18.37;100.00;99838.36;1708786;82;21045;-88
2021/07/21 00:51:22;;;;;;;21.30;7.75;;;;;;;18.38;100.00;99834.42;1747681;81;21048;-87
2021/07/21 00:54:07;;;;;;;15.90;6.85;;;;;;;18.39;100.00;99831.88;1732961;81;21451;-87
2021/07/21 00:56:52;;;;;;;23.75;7.30;;;;;;;18.39;100.00;99824.16;1695727;81;21058;-87
2021/07/21 00:59:38;;;;;;;25.15;8.45;;;;;;;18.41;100.00;99825.42;1747851;79;21046;-88
2021/07/21 01:02:22;;;;;;;24.10;9.15;;;;;;;18.41;100.00;99817.13;1737367;82;21205;-88
2021/07/21 01:05:15;;;;;;;24.92;7.65;;;;;;;18.43;100.00;99822.33;1719305;81;21065;-87
2021/07/21 01:08:00;;;;;;;;;;;;;;;18.44;100.00;99827.48;1729327;81;21228;-87
2021/07/21 01:11:16;;;;;;;18.10;6.55;;;;;;;18.47;100.00;99822.67;1695649;81;20173;-87
2021/07/21 01:14:34;;;;;;;19.87;6.33;;;;;;;18.47;100.00;99812.16;1719626;81;21037;-87
2021/07/21 01:17:25;;;;;;;23.87;8.25;;;;;;;18.48;100.00;99811.81;1723060;81;21622;-88
2021/07/21 01:20:50;;;;;;;23.20;7.30;;;;;;;18.48;100.00;99813.20;1747499;81;20958;-88
2021/07/21 01:23:53;;;;;;;20.00;6.35;;;;;;;18.49;100.00;99815.39;1721432;82;21544;-87
2021/07/21 01:27:06;;;;;;;15.45;5.83;;;;;;;18.50;100.00;99810.68;1743036;81;21551;-88
2021/07/21 01:29:55;;;;;;;15.55;5.67;;;;;;;18.50;100.00;99807.91;1744786;81;21056;-88
2021/07/21 01:32:44;;;;;;;17.48;6.47;;;;;;;18.50;100.00;99807.91;1725740;81;20973;-87
2021/07/21 01:36:03;;;;;;;20.10;6.15;;;;;;;18.48;100.00;99803.52;1723191;81;21085;-87
2021/07/21 01:38:54;;;;;;;12.70;4.92;;;;;;;18.45;100.00;99808.38;1711788;83;21037;-87
2021/07/21 01:41:47;;;;;;;14.45;5.28;;;;;;;18.45;100.00;99809.75;1713502;83;20945;-88
2021/07/21 01:44:35;;;;;;;15.72;5.90;;;;;;;18.48;100.00;99809.64;1723261;81;21471;-88
2021/07/21 01:47:22;;;;;;;17.40;5.47;;;;;;;18.49;100.00;99812.62;1742551;82;21049;-87
2021/07/21 01:50:08;;;;;;;19.12;5.42;;;;;;;18.51;100.00;99812.28;1722848;80;21025;-87
2021/07/21 01:52:53;;;;;;;15.38;5.40;;;;;;;18.53;100.00;99814.12;1730262;80;21101;-87
2021/07/21 01:55:40;;;;;;;16.07;5.92;;;;;;;18.55;100.00;99813.21;1743508;80;21070;-87
2021/07/21 01:58:26;;;;;;;23.92;6.22;;;;;;;18.56;100.00;99817.58;1703119;80;21557;-87
2021/07/21 02:01:13;;;;;;;20.70;6.53;;;;;;;18.57;100.00;99811.70;1719394;81;21102;-86
2021/07/21 02:03:59;;;;;;;18.55;5.17;;;;;;;18.60;100.00;99815.73;1770115;78;21006;-86
2021/07/21 02:06:46;;;;;;;26.80;7.60;;;;;;;18.60;100.00;99818.50;1754191;80;21087;-88
2021/07/21 02:09:32;;;;;;;17.80;5.47;;;;;;;18.60;100.00;99818.50;1740921;81;21202;-89
2021/07/21 02:12:18;;;;;;;20.00;6.17;;;;;;;18.58;100.00;99819.42;1730686;81;21053;-86
2021/07/21 02:15:06;;;;;;;18.30;6.10;;;;;;;18.56;100.00;99823.91;1713240;83;21003;-89
2021/07/21 02:17:53;;;;;;;21.23;5.53;;;;;;;18.55;100.00;99821.51;1714228;83;21097;-89
2021/07/21 02:20:38;;;;;;;15.93;6.30;;;;;;;18.56;100.00;99818.37;1748104;80;20998;-89
2021/07/21 02:23:26;;;;;;;16.27;5.83;;;;;;;18.56;100.00;99821.14;1744066;81;21069;-90
2021/07/21 02:26:18;;;;;;;13.60;4.85;;;;;;;18.56;100.00;99823.11;1702379;81;21077;-89
2021/07/21 02:29:05;;;;;;;15.23;4.83;;;;;;;18.58;100.00;99816.07;1765372;79;21044;-90
2021/07/21 02:32:20;;;;;;;9.15;3.67;;;;;;;18.60;100.00;99814.35;1738316;82;21076;-90
2021/07/21 02:35:07;;;;;;;11.53;4.65;;;;;;;18.64;100.00;99818.02;1740635;81;20918;-89
2021/07/21 02:37:54;;;;;;;14.98;4.95;;;;;;;18.68;100.00;99821.70;1715655;82;21064;-86
2021/07/21 02:40:41;;;;;;;15.10;6.33;;;;;;;18.72;100.00;99808.79;1746939;81;21098;-86
2021/07/21 02:43:28;;;;;;;18.30;6.30;;;;;;;18.75;100.00;99805.31;1744648;81;21133;-89
2021/07/21 02:46:16;;;;;;;14.93;5.40;;;;;;;18.74;100.00;99808.42;1694476;83;21098;-90
2021/07/21 02:49:02;;;;;;;11.57;4.87;;;;;;;18.69;100.00;99812.23;1734776;81;21060;-86
2021/07/21 02:51:55;;;;;;;16.10;5.15;;;;;;;18.67;100.00;99819.52;1772824;80;21095;-86
2021/07/21 02:55:23;;;;;;;11.68;5.25;;;;;;;18.68;100.00;99823.89;1719365;82;21036;-86
2021/07/21 02:58:21;;;;;;;16.12;5.78;;;;;;;18.73;100.00;99833.91;1746685;81;21483;-87
2021/07/21 03:01:08;;;;;;;12.82;6.10;;;;;;;18.72;100.00;99825.95;1767830;80;20989;-89
2021/07/21 03:03:54;;;;;;;12.95;6.35;;;;;;;18.72;100.00;99826.78;1708038;82;21105;-89
2021/07/21 03:06:39;;;;;;;15.50;6.95;;;;;;;18.75;100.00;99833.58;1690683;83;21128;-87
2021/07/21 03:09:27;;;;;;;14.13;7.15;;;;;;;18.74;100.00;99829.98;1678872;83;21057;-87
2021/07/21 03:12:14;;;;;;;12.65;5.28;;;;;;;18.73;100.00;99829.77;1693909;83;21123;-88
2021/07/21 03:15:07;;;;;;;15.72;6.40;;;;;;;18.73;100.00;99829.77;1695465;82;21505;-88
2021/07/21 03:17:53;;;;;;;14.30;5.80;;;;;;;18.76;100.00;99836.59;1707372;81;21127;-89
2021/07/21 03:20:41;;;;;;;14.50;5.75;;;;;;;18.77;100.00;99834.03;1701500;81;21065;-86
2021/07/21 03:23:29;;;;;;;13.20;6.03;;;;;;;18.81;100.00;99832.99;1771589;80;21075;-86
2021/07/21 03:26:16;;;;;;;10.43;4.53;;;;;;;18.84;100.00;99836.47;1694623;83;21734;-86
2021/07/21 03:29:02;;;;;;;14.75;5.97;;;;;;;18.88;100.00;99833.21;1739260;81;21124;-88
2021/07/21 03:31:47;;;;;;;15.35;5.47;;;;;;;18.94;100.00;99842.66;1705349;81;21128;-88
2021/07/21 03:34:35;;;;;;;12.90;4.97;;;;;;;18.95;100.00;99839.55;1758505;80;21021;-86
2021/07/21 03:37:22;;;;;;;10.13;5.00;;;;;;;18.96;100.00;99837.58;1745557;81;21475;-88
2021/07/21 03:40:20;;;;;;;12.33;5.58;;;;;;;19.01;100.00;99840.89;1747610;80;20965;-86
2021/07/21 03:43:24;;;;;;;14.95;5.90;;;;;;;19.07;100.00;99838.70;1744331;80;21517;-86
2021/07/21 03:46:17;;;;;;;12.90;5.83;;;;;;;19.11;100.00;99842.36;1725623;82;21093;-89
2021/07/21 03:49:02;;;;;;;12.45;4.85;;;;;;;19.15;100.00;99838.33;1724363;82;21017;-89
2021/07/21 03:51:52;;;;;;;13.70;5.80;;;;;;;19.18;100.00;99835.65;1718450;81;21195;-86
2021/07/21 03:54:56;;;;;;;12.30;5.78;;;;;;;19.23;100.00;99834.59;1772953;80;21060;-89
2021/07/21 03:57:43;;;;;;;13.50;5.45;;;;;;;19.37;100.00;99836.97;1727920;82;21047;-89
2021/07/21 04:00:28;;;;;;;41.55;22.50;;;;;;;19.37;100.00;99836.97;1717531;81;22062;-86
2021/07/21 04:03:16;;;;;;;17.65;9.08;;;;;;;19.40;100.00;99834.28;1712344;80;21088;-86
2021/07/21 04:06:09;;;;;;;26.10;15.03;;;;;;;19.44;100.00;99834.40;1694470;81;21556;-89
2021/07/21 04:09:05;;;;;;;15.30;6.35;;;;;;;19.50;100.00;99841.28;1757960;80;21498;-88
2021/07/21 04:11:51;;;;;;;11.88;5.90;;;;;;;19.46;100.00;99840.37;1731286;80;21024;-86
2021/07/21 04:14:38;;;;;;;12.60;5.60;;;;;;;19.42;100.00;99840.87;1707835;83;21065;-86
2021/07/21 04:17:25;;;;;;;11.28;5.65;;;;;;;19.40;100.00;99844.56;1739726;80;21444;-87
2021/07/21 04:20:11;;;;;;;10.30;5.08;;;;;;;19.44;100.00;99842.71;1714182;80;21084;-86
2021/07/21 04:22:56;;;;;;;10.85;5.80;;;;;;;19.49;100.00;99841.06;1758720;80;21074;-89
2021/07/21 04:25:42;;;;;;;11.85;5.65;;;;;;;19.54;100.00;99844.97;1755173;81;21010;-90
2021/07/21 04:28:27;;;;;;;8.43;4.53;;;;;;;19.60;100.00;99837.19;1758481;80;21081;-90
2021/07/21 04:31:14;;;;;;;8.45;4.05;;;;;;;19.64;100.00;99833.36;1697805;82;21022;-90
2021/07/21 04:34:02;;;;;;;11.60;5.70;;;;;;;19.74;100.00;99838.41;1696054;82;21100;-89
2021/07/21 04:36:49;;;;;;;10.03;5.08;;;;;;;19.85;100.00;99843.42;1663237;82;21135;-86
2021/07/21 04:39:35;;;;;;;8.00;4.05;;;;;;;19.98;100.00;99847.15;1715102;81;21077;-87
2021/07/21 04:42:28;;;;;;;9.60;4.95;;;;;;;20.09;100.00;99847.99;1712441;82;21071;-87
2021/07/21 04:45:14;;;;;;;6.15;3.77;;;;;;;20.17;100.00;99847.00;1723048;81;21031;-87
2021/07/21 04:48:00;;;;;;;7.67;3.62;;;;;;;20.28;100.00;99847.28;1713376;82;21531;-92
2021/07/21 04:50:46;;;;;;;6.12;3.15;;;;;;;20.36;100.00;99853.21;1716255;81;21080;-89
2021/07/21 04:53:33;;;;;;;8.53;4.58;;;;;;;20.44;100.00;99852.80;1704960;82;21144;-87
2021/07/21 04:56:19;;;;;;;7.00;3.92;;;;;;;20.54;100.00;99857.79;1730861;82;22276;-90
2021/07/21 04:59:05;;;;;;;6.92;3.77;;;;;;;20.67;100.00;99857.12;1750128;80;21544;-90
2021/07/21 05:01:51;;;;;;;4.37;2.45;;;;;;;20.78;100.00;99852.03;1727390;82;21516;-87
2021/07/21 05:04:36;;;;;;;7.22;4.35;;;;;;;20.86;100.00;99843.27;1698223;83;21485;-87
2021/07/21 05:07:29;;;;;;;4.25;2.80;;;;;;;20.92;100.00;99851.55;1709332;82;21024;-90
2021/07/21 05:10:16;;;;;;;5.97;2.80;;;;;;;20.98;100.00;99848.69;1716381;82;21093;-89
2021/07/21 05:13:02;;;;;;;5.80;3.33;;;;;;;21.03;100.00;99850.38;1717818;81;21558;-89
2021/07/21 05:15:49;;;;;;;5.22;3.30;;;;;;;21.01;100.00;99853.52;1743071;81;21053;-88
2021/07/21 05:18:37;;;;;;;4.05;2.70;;;;;;;21.02;100.00;99854.34;1719488;82;21071;-86
2021/07/21 05:21:24;;;;;;;4.55;2.40;;;;;;;21.04;100.00;99851.42;1717035;82;21027;-89
2021/07/21 05:24:10;;;;;;;5.87;2.40;;;;;;;21.01;100.00;99859.06;1737880;82;21706;-87
2021/07/21 05:26:55;;;;;;;4.60;2.95;;;;;;;20.99;100.00;99857.27;1717058;83;21014;-90
2021/07/21 05:29:43;;;;;;;5.30;2.98;;;;;;;21.02;100.00;99862.08;1730777;81;21033;-89
2021/07/21 05:32:36;;;;;;;4.90;2.95;;;;;;;21.03;100.00;99855.34;1722702;82;21113;-87
2021/07/21 05:35:26;;;;;;;3.62;2.77;;;;;;;21.09;100.00;99850.30;1746262;81;21093;-87
2021/07/21 05:38:14;;;;;;;7.30;2.30;;;;;;;21.14;100.00;99857.54;1752121;80;21066;-89
2021/07/21 05:41:00;;;;;;;4.30;2.95;;;;;;;21.19;100.00;99851.13;1739414;80;21044;-90
2021/07/21 05:43:47;;;;;;;7.83;3.15;;;;;;;21.33;100.00;99853.38;1750616;80;21053;-87
2021/07/21 05:46:32;;;;;;;5.55;2.95;;;;;;;21.45;100.00;99851.06;1717898;82;21567;-91
2021/07/21 05:49:19;;;;;;;8.65;3.85;;;;;;;21.53;100.00;99849.22;1717288;82;21057;-90
2021/07/21 05:52:12;;;;;;;6.92;3.92;;;;;;;21.65;100.00;99858.78;1731397;81;21089;-87
2021/07/21 05:54:58;;;;;;;7.75;3.00;;;;;;;21.62;100.00;99853.38;1739230;81;21034;-87
2021/07/21 05:57:44;;;;;;;4.92;3.08;;;;;;;21.59;100.00;99851.34;1738682;81;21093;-90
2021/07/21 06:00:30;;;;;;;7.15;3.62;;;;;;;21.63;100.00;99850.00;1772718;80;21046;-91
2021/07/21 06:03:18;;;;;;;7.00;3.55;;;;;;;21.76;100.00;99847.29;1748493;81;21095;-91
2021/07/21 06:06:21;;;;;;;5.72;3.05;;;;;;;21.80;100.00;99852.90;1742377;81;21494;-87
2021/07/21 06:09:08;;;;;;;6.12;3.75;;;;;;;21.80;100.00;99855.09;1767833;80;21037;-90
2021/07/21 06:11:55;;;;;;;6.78;3.35;;;;;;;21.80;100.00;99859.86;1745715;81;21049;-87
2021/07/21 06:14:41;;;;;;;4.67;3.22;;;;;;;21.81;100.00;99848.94;1745095;81;21536;-92
2021/07/21 06:17:26;;;;;;;7.58;3.83;;;;;;;21.92;100.00;99845.77;1744652;81;21073;-91
2021/07/21 06:20:12;;;;;;;6.45;3.27;;;;;;;22.05;100.00;99844.98;1748451;81;20977;-92
2021/07/21 06:23:51;;;;;;;7.10;4.10;;;;;;;22.26;100.00;99848.16;1849265;77;22743;-86
2021/07/21 06:26:37;;;;;;;7.95;3.83;;;;;;;22.25;100.00;99852.11;1803539;78;22206;-87
2021/07/21 06:29:33;;;;;;;7.85;3.87;;;;;;;22.27;100.00;99845.58;1783721;80;20905;-91
2021/07/21 06:32:18;;;;;;;11.73;4.30;;;;;;;22.20;100.00;99848.25;1771260;79;21086;-88
2021/07/21 06:35:06;;;;;;;8.23;4.25;;;;;;;22.18;100.00;99851.16;1731939;80;21117;-87
2021/07/21 06:37:52;;;;;;;6.70;3.77;;;;;;;22.15;100.00;99860.26;1789416;79;21500;-87
2021/07/21 06:40:38;;;;;;;7.28;4.12;;;;;;;22.17;100.00;99861.49;1789028;79;21092;-90
2021/07/21 06:43:24;;;;;;;6.17;3.90;;;;;;;22.22;100.00;99859.02;1779981;80;21013;-88
2021/07/21 06:46:17;;;;;;;8.23;3.50;;;;;;;22.26;100.00;99861.28;1789684;78;21064;-87
2021/07/21 06:49:04;;;;;;;8.55;4.70;;;;;;;22.31;100.00;99863.75;1788948;80;21036;-87
2021/07/21 06:51:49;;;;;;;8.65;3.92;;;;;;;22.38;100.00;99868.04;1789771;79;21084;-89
2021/07/21 06:54:48;;;;;;;7.12;4.25;;;;;;;22.49;100.00;99869.59;1766624;80;21024;-89
2021/07/21 06:57:46;;;;;;;8.10;4.67;;;;;;;22.65;100.00;99864.67;1773080;79;21033;-91
2021/07/21 07:00:49;;;;;;;7.55;4.10;;;;;;;22.70;100.00;99878.84;1747602;80;20984;-93
2021/07/21 07:03:53;;;;;;;7.12;4.03;;;;;;;22.74;100.00;99878.31;1737223;82;21569;-92
2021/07/21 07:06:59;;;;;;;7.03;4.25;;;;;;;22.88;100.00;99880.52;1738369;81;21117;-92
2021/07/21 07:09:52;;;;;;;8.25;4.58;;;;;;;22.93;100.00;99878.79;1739599;81;21111;-88
2021/07/21 07:12:40;;;;;;;7.95;4.37;;;;;;;23.01;100.00;99873.55;1708965;82;21013;-92
2021/07/21 07:15:25;;;;;;;7.15;3.60;;;;;;;23.08;100.00;99870.06;1718730;82;21037;-93
2021/07/21 07:18:14;;;;;;;9.08;4.72;;;;;;;23.03;100.00;99863.43;1704139;82;21014;-89
2021/07/21 07:20:57;;;;;;;7.55;3.77;;;;;;;22.96;100.00;99868.28;1702979;82;21721;-92
2021/07/21 07:23:42;;;;;;;6.90;4.17;;;;;;;22.84;100.00;99864.33;1720937;82;20973;-91
2021/07/21 07:26:27;;;;;;;9.33;4.45;;;;;;;22.81;100.00;99865.89;1705746;82;21057;-93
2021/07/21 07:29:12;;;;;;;9.25;4.75;;;;;;;22.88;100.00;99859.02;1715974;82;21088;-88
2021/07/21 07:31:57;;;;;;;6.05;3.67;;;;;;;23.06;100.00;99856.50;1735247;81;22343;-89
2021/07/21 07:34:42;;;;;;;7.70;4.20;;;;;;;23.31;100.00;99869.94;1734452;82;21085;-89
2021/07/21 07:37:27;;;;;;;7.28;4.53;;;;;;;23.52;100.00;99872.20;1734412;82;21018;-93
2021/07/21 07:40:13;;;;;;;7.72;4.60;;;;;;;23.62;100.00;99870.11;1734594;82;21036;-89
2021/07/21 07:42:58;;;;;;;6.67;3.70;;;;;;;23.61;100.00;99867.09;1705143;82;21081;-91
2021/07/21 07:45:43;;;;;;;7.80;4.70;;;;;;;23.63;100.00;99874.49;1709832;82;21100;-93
2021/07/21 07:48:28;;;;;;;7.20;3.92;;;;;;;23.64;100.00;99873.89;1734563;82;21006;-92
2021/07/21 07:51:13;;;;;;;6.92;3.92;;;;;;;23.66;100.00;99871.53;1734767;82;21040;-89
2021/07/21 07:53:58;;;;;;;6.75;3.52;;;;;;;23.72;100.00;99872.81;1735011;82;21142;-90
2021/07/21 07:56:43;;;;;;;6.25;4.33;;;;;;;23.80;100.00;99873.11;1734627;82;21027;-89
2021/07/21 07:59:28;;;;;;;7.17;4.72;;;;;;;23.82;100.00;99863.77;1711402;82;21025;-89
2021/07/21 08:02:13;;;;;;;7.83;4.15;;;;;;;23.82;100.00;99862.38;1734682;82;21075;-93
2021/07/21 08:04:58;;;;;;;9.25;4.05;;;;;;;23.95;100.00;99862.89;1735275;82;20970;-93
2021/07/21 08:07:43;;;;;;;6.15;4.37;;;;;;;24.06;100.00;99862.98;1733727;82;21013;-92
2021/07/21 08:10:28;;;;;;;8.03;3.80;;;;;;;24.14;100.00;99857.69;1733847;82;21108;-93
2021/07/21 08:13:14;;;;;;;6.22;3.77;;;;;;;24.22;98.70;99869.11;1733624;82;21551;-89
2021/07/21 08:16:01;;;;;;;7.53;4.15;;;;;;;24.22;98.28;99867.72;1733947;81;21116;-92
2021/07/21 08:18:46;;;;;;;8.50;3.72;;;;;;;24.21;98.45;99866.92;1734617;81;21108;-91
2021/07/21 08:21:32;;;;;;;7.60;4.15;;;;;;;24.17;96.59;99866.68;1733469;81;21904;-88
2021/07/21 08:24:17;;;;;;;6.40;3.42;;;;;;;24.10;97.12;99870.20;1730251;82;21040;-90
2021/07/21 08:27:03;;;;;;;8.98;4.47;;;;;;;24.08;97.83;99864.80;1732248;82;21057;-87
2021/07/21 08:29:48;;;;;;;8.33;4.20;;;;;;;24.16;97.28;99865.06;1732561;82;21051;-88
2021/07/21 08:32:35;;;;;;;8.35;4.47;;;;;;;24.27;97.05;99856.20;1732089;82;20920;-88
2021/07/21 08:35:24;;;;;;;8.48;4.20;;;;;;;24.41;96.24;99859.70;1731459;82;21518;-92
2021/07/21 08:38:09;;;;;;;11.00;4.17;;;;;;;24.44;95.25;99863.91;1732207;82;21051;-88
2021/07/21 08:40:55;;;;;;;8.45;4.40;;;;;;;24.53;95.62;99865.58;1731450;82;21043;-93
2021/07/21 08:43:40;;;;;;;7.25;3.58;;;;;;;24.62;93.88;99869.64;1708122;82;21039;-88
2021/07/21 08:46:26;;;;;;;8.78;4.55;;;;;;;24.71;92.91;99869.31;1732303;81;21053;-88
2021/07/21 08:49:11;;;;;;;6.75;4.25;;;;;;;24.81;92.77;99867.17;1732053;81;21070;-90
2021/07/21 08:51:57;;;;;;;8.55;4.28;;;;;;;24.84;89.72;99867.78;1731931;81;21035;-88
2021/07/21 08:54:44;;;;;;;9.05;4.47;;;;;;;24.77;91.06;99867.73;1717977;82;21055;-88
2021/07/21 08:57:30;;;;;;;6.05;3.85;;;;;;;24.81;91.66;99871.36;1732003;81;21526;-89
2021/07/21 09:00:16;;;;;;;7.65;4.28;;;;;;;24.73;89.73;99869.72;1733233;81;21055;-91
2021/07/21 09:03:02;;;;;;;8.80;3.90;;;;;;;24.55;89.94;99868.79;1732135;80;21040;-87
2021/07/21 09:05:52;;;;;;;8.08;4.33;;;;;;;24.42;89.74;99871.86;1732040;81;21461;-90
2021/07/21 09:08:37;;;;;;;6.25;3.75;;;;;;;24.30;89.96;99862.39;1732124;81;21082;-90
2021/07/21 09:11:22;;;;;;;10.25;4.37;;;;;;;24.15;89.73;99875.43;1733381;81;21028;-89
2021/07/21 09:14:07;;;;;;;7.50;4.53;;;;;;;23.98;89.90;99877.47;1732550;82;21443;-88
2021/07/21 09:17:14;;;;;;;8.30;4.30;;;;;;;23.84;90.80;99880.94;1733185;81;21095;-88
2021/07/21 09:19:59;;;;;;;10.05;4.47;;;;;;;23.78;92.07;99881.05;1704686;82;21467;-89
2021/07/21 09:22:44;;;;;;;8.28;4.28;;;;;;;23.68;91.43;99874.75;1736721;81;21077;-92
2021/07/21 09:25:31;;;;;;;9.15;3.92;;;;;;;23.58;91.27;99871.45;1661528;83;20984;-89
2021/07/21 09:28:16;;;;;;;8.73;4.53;;;;;;;23.54;92.92;99870.63;1723849;83;21567;-89
2021/07/21 09:31:03;;;;;;;7.58;4.42;;;;;;;23.63;92.76;99860.55;1708534;83;21029;-88
2021/07/21 09:33:48;;;;;;;9.35;4.05;;;;;;;23.75;92.31;99853.94;1697556;84;21092;-92
2021/07/21 09:36:33;;;;;;;8.03;3.60;;;;;;;23.83;91.69;99857.00;1697595;84;21084;-94
2021/07/21 09:39:19;;;;;;;8.23;3.83;;;;;;;23.89;91.40;99863.84;1697669;84;21488;-89
2021/07/21 09:42:05;;;;;;;8.43;3.70;;;;;;;23.88;90.86;99862.82;1675619;84;21533;-92
2021/07/21 09:44:50;;;;;;;10.55;5.05;;;;;;;23.82;91.94;99860.98;1697703;84;21070;-91
2021/07/21 09:47:39;;;;;;;9.35;4.70;;;;;;;23.88;93.26;99852.45;1671483;84;21100;-92
2021/07/21 09:50:26;;;;;;;8.08;3.70;;;;;;;23.99;93.48;99842.81;1698310;84;21088;-91
2021/07/21 09:53:14;;;;;;;6.12;3.65;;;;;;;24.06;93.47;99837.30;1697739;84;21068;-91
2021/07/21 09:55:59;;;;;;;8.68;4.17;;;;;;;24.15;93.60;99840.54;1697555;84;21204;-90
2021/07/21 09:58:44;;;;;;;12.23;4.42;;;;;;;24.30;93.58;99842.84;1697970;84;21065;-91
2021/07/21 10:01:30;;;;;;;6.72;3.70;;;;;;;24.41;90.86;99830.38;1696483;83;21049;-88
2021/07/21 10:04:37;;;;;;;5.45;3.50;;;;;;;24.53;90.40;99839.05;1688974;84;21112;-91
2021/07/21 10:10:22;;;;;;;7.45;4.08;;;;;;;24.73;88.41;99839.00;1716348;83;21128;-91
2021/07/21 10:13:07;;;;;;;7.12;3.67;;;;;;;24.77;88.49;99843.19;1716160;83;21285;-91
2021/07/21 10:15:54;;;;;;;6.67;4.33;;;;;;;24.80;88.00;99833.45;1716206;83;21045;-89
2021/07/21 10:18:40;;;;;;;9.05;4.37;;;;;;;24.94;88.93;99829.11;1716748;83;21101;-89
2021/07/21 10:21:25;;;;;;;8.73;4.15;;;;;;;25.14;85.73;99829.59;1716419;82;21065;-92
2021/07/21 10:24:11;;;;;;;6.00;3.95;;;;;;;25.17;82.95;99826.04;1696530;83;21065;-89
2021/07/21 10:26:56;;;;;;;7.45;3.83;;;;;;;25.19;82.52;99827.25;1701865;83;21053;-89
2021/07/21 10:29:42;;;;;;;8.63;4.15;;;;;;;25.24;82.35;99817.08;1699900;84;21085;-91
2021/07/21 10:32:32;;;;;;;8.33;4.12;;;;;;;25.40;82.68;99811.75;1699265;83;21034;-91
2021/07/21 10:35:15;;;;;;;7.95;4.10;;;;;;;25.41;79.87;99807.14;1700098;83;21080;-89
2021/07/21 10:38:00;;;;;;;6.50;3.17;;;;;;;25.39;80.89;99804.55;1722516;83;21029;-90
2021/07/21 10:40:46;;;;;;;6.28;3.40;;;;;;;25.46;81.56;99804.56;1727847;81;21029;-88
2021/07/21 10:43:32;;;;;;;5.78;3.08;;;;;;;25.47;80.94;99806.15;1727800;83;21117;-91
2021/07/21 10:46:38;;;;;;;7.80;3.55;;;;;;;25.46;81.30;99801.77;1730356;81;21053;-91
2021/07/21 10:49:45;;;;;;;7.17;3.52;;;;;;;25.46;80.77;99806.75;1732485;82;20981;-90
2021/07/21 10:52:40;;;;;;;6.90;3.10;;;;;;;25.61;82.13;99811.78;1731292;81;21053;-90
2021/07/21 10:55:28;;;;;;;8.98;3.45;;;;;;;25.78;80.78;99820.61;1731411;81;21022;-91
2021/07/21 11:01:25;;;;;;;9.68;3.92;;;;;;;25.57;78.79;99830.58;1728819;82;21043;-91
2021/07/21 11:04:11;;;;;;;9.00;3.80;;;;;;;25.47;79.37;99829.92;1708450;83;20998;-91
2021/07/21 11:06:56;;;;;;;9.20;3.47;;;;;;;25.39;79.15;99824.12;1729759;82;21097;-90
2021/07/21 11:09:42;;;;;;;7.47;3.95;;;;;;;25.37;79.49;99830.70;1728405;83;21018;-92
2021/07/21 11:12:33;;;;;;;8.83;3.45;;;;;;;25.39;79.90;99835.30;1707740;82;21080;-90
2021/07/21 11:15:45;;;;;;;7.03;3.10;;;;;;;25.38;80.24;99830.31;1697677;84;21544;-89
2021/07/21 11:18:41;;;;;;;5.60;2.75;;;;;;;25.44;80.77;99830.72;1698101;84;21033;-91
2021/07/21 11:21:26;;;;;;;6.58;2.92;;;;;;;25.56;79.36;99835.16;1704644;83;21091;-91
2021/07/21 11:24:12;;;;;;;5.22;2.90;;;;;;;25.55;79.21;99832.16;1727680;82;21128;-90
2021/07/21 11:26:58;;;;;;;6.97;3.20;;;;;;;25.57;78.32;99831.97;1727725;81;21076;-90
2021/07/21 11:29:45;;;;;;;4.35;2.58;;;;;;;25.63;77.49;99824.78;1728258;83;21089;-90
2021/07/21 11:32:30;;;;;;;5.78;3.12;;;;;;;25.68;76.56;99822.98;1728792;82;21039;-91
2021/07/21 11:35:39;;;;;;;5.58;3.00;;;;;;;25.69;74.59;99824.60;1728698;82;21655;-92
2021/07/21 11:38:48;;;;;;;6.58;3.10;;;;;;;25.63;74.77;99823.38;1662768;82;21030;-89
2021/07/21 11:41:54;;;;;;;6.40;2.50;;;;;;;25.61;75.30;99820.17;1705584;82;21089;-90
2021/07/21 11:44:42;;;;;;;5.80;3.02;;;;;;;25.77;75.87;99818.98;1728564;82;21041;-90
2021/07/21 11:47:26;;;;;;;4.00;2.60;;;;;;;25.92;74.99;99817.86;1728439;82;21125;-90
2021/07/21 11:50:20;;;;;;;5.85;2.80;;;;;;;26.03;75.80;99812.25;1699271;83;21104;-90
2021/07/21 11:53:06;;;;;;;5.58;2.72;;;;;;;26.16;74.56;99817.06;1728742;83;21012;-88
2021/07/21 11:55:51;;;;;;;5.58;3.00;;;;;;;26.29;73.62;99805.45;1728943;82;21094;-89
2021/07/21 11:58:37;;;;;;;5.58;2.77;;;;;;;26.26;73.24;99803.43;1729048;82;21048;-91
2021/07/21 12:01:27;;;;;;;5.22;3.15;;;;;;;26.11;74.46;99799.27;1728470;82;21049;-89
2021/07/21 12:04:12;;;;;;;5.37;3.00;;;;;;;26.01;75.83;99808.44;1728628;82;21044;-92
2021/07/21 12:06:58;;;;;;;4.35;3.12;;;;;;;25.85;74.53;99798.23;1675635;82;21092;-90
2021/07/21 12:09:45;;;;;;;5.12;2.62;;;;;;;25.62;75.64;99805.00;1739058;80;21128;-89
2021/07/21 12:12:30;;;;;;;5.08;2.98;;;;;;;25.48;76.37;99802.17;1729733;80;21010;-89
2021/07/21 12:15:16;;;;;;;6.40;3.15;;;;;;;25.42;76.84;99810.16;1702475;84;21042;-89
2021/07/21 12:18:10;;;;;;;6.53;4.40;;;;;;;25.42;76.73;99812.13;1697103;83;20953;-89
2021/07/21 12:21:00;;;;;;;6.25;2.85;;;;;;;25.38;77.09;99814.14;1704396;83;21096;-91
2021/07/21 12:23:45;;;;;;;5.67;3.10;;;;;;;25.38;76.47;99816.33;1687076;82;21077;-90
2021/07/21 12:26:45;;;;;;;3.75;2.33;;;;;;;25.42;77.56;99813.53;1687311;84;21493;-89
2021/07/21 12:29:30;;;;;;;5.55;3.58;;;;;;;25.43;77.99;99819.34;1703992;83;21054;-90
2021/07/21 12:32:18;;;;;;;5.97;2.60;;;;;;;25.39;79.34;99812.93;1676609;84;21069;-91
2021/07/21 12:35:04;;;;;;;5.10;3.10;;;;;;;25.27;79.86;99821.91;1685030;84;21022;-89
2021/07/21 12:37:52;;;;;;;5.03;2.70;;;;;;;25.02;81.95;99817.56;1675600;85;21523;-92
2021/07/21 12:40:37;;;;;;;5.08;2.30;;;;;;;24.67;83.51;99830.16;1686058;84;21061;-89
2021/07/21 12:43:25;;;;;;;4.92;2.70;;;;;;;24.29;84.63;99831.48;1704686;83;21064;-89
2021/07/21 12:46:17;;;;;;;4.45;2.70;;;;;;;23.97;85.93;99836.81;1704230;83;21455;-93
2021/07/21 12:49:02;;;;;;;3.87;2.60;;;;;;;23.71;86.41;99843.30;1704642;83;21050;-92
2021/07/21 12:51:47;;;;;;;5.58;3.00;;;;;;;23.45;86.44;99835.87;1704287;83;21065;-89
2021/07/21 12:54:34;;;;;;;3.83;2.50;;;;;;;23.23;87.16;99835.61;1676971;83;21073;-89
2021/07/21 12:57:52;;;;;;;3.67;2.55;;;;;;;23.07;87.90;99835.00;1675894;84;21370;-89
2021/07/21 13:00:44;;;;;;;5.03;2.50;;;;;;;22.97;88.96;99837.83;1677361;84;21069;-93
2021/07/21 13:03:30;;;;;;;5.15;3.12;;;;;;;22.89;90.42;99834.75;1674412;85;21026;-90
2021/07/21 13:06:23;;;;;;;5.20;2.85;;;;;;;22.84;91.82;99842.84;1674911;85;21064;-90
2021/07/21 13:09:09;;;;;;;5.90;2.80;;;;;;;22.79;93.74;99842.38;1674625;85;21184;-94
2021/07/21 13:11:55;;;;;;;4.53;2.87;;;;;;;22.69;95.13;99837.66;1643092;84;21077;-90
2021/07/21 13:14:42;;;;;;;4.42;2.77;;;;;;;22.61;96.13;99838.75;1674237;85;21472;-94
2021/07/21 13:17:28;;;;;;;5.45;3.02;;;;;;;22.52;96.83;99840.99;1675975;84;21031;-93